Time;durP1;ratioP1;P1;durP2;ratioP2;P2;SDS_P1;SDS_P2;PMS_P1;PMS_P2;Temp;Humidity;BMP_temperature;BMP_pressure;BME280_temperature;BME280_humidity;BME280_pressure;Samples;Min_cycle;Max_cycle;Signal;HPM_P1;HPM_P2
2022/07/05 00:01:41;;;;;;;0.00;0.00;;;23.10;59.80;;;;;;4064302;29;20055;-66
2022/07/05 00:04:03;;;;;;;0.00;0.00;;;23.10;59.80;;;;;;4064572;29;20556;-66
2022/07/05 00:06:25;;;;;;;0.00;0.00;;;23.00;59.80;;;;;;4064485;29;20143;-65
2022/07/05 00:08:48;;;;;;;52.08;2.20;;;23.10;59.90;;;;;;4064685;29;20151;-66
2022/07/05 00:11:10;;;;;;;0.00;0.00;;;23.10;59.90;;;;;;4064276;29;20131;-66
2022/07/05 00:13:33;;;;;;;0.03;0.03;;;23.00;59.90;;;;;;4064137;29;20124;-66
2022/07/05 00:15:55;;;;;;;0.25;0.25;;;23.00;59.90;;;;;;4062269;29;20052;-66
2022/07/05 00:18:17;;;;;;;0.00;0.00;;;23.00;59.90;;;;;;4064674;29;20052;-66
2022/07/05 00:20:39;;;;;;;0.00;0.00;;;23.00;60.00;;;;;;4064441;29;20089;-65
2022/07/05 00:23:01;;;;;;;0.25;0.25;;;23.00;60.00;;;;;;4049392;29;20056;-65
2022/07/05 00:25:24;;;;;;;0.00;0.00;;;23.00;60.00;;;;;;4063419;29;20052;-65
2022/07/05 00:27:46;;;;;;;0.00;0.00;;;23.00;60.10;;;;;;4064226;29;20116;-65
2022/07/05 00:30:09;;;;;;;0.00;0.00;;;23.00;60.20;;;;;;4063844;29;20143;-65
2022/07/05 00:32:32;;;;;;;0.98;0.88;;;23.00;60.10;;;;;;4049659;29;20409;-65
2022/07/05 00:34:54;;;;;;;0.00;0.00;;;23.00;60.10;;;;;;4064008;29;20114;-65
2022/07/05 00:37:16;;;;;;;0.10;0.10;;;23.00;60.10;;;;;;4049338;29;20448;-65
2022/07/05 00:39:38;;;;;;;0.00;0.00;;;23.00;60.10;;;;;;4063085;29;20143;-65
2022/07/05 00:42:03;;;;;;;0.00;0.00;;;22.90;60.10;;;;;;4063476;29;20055;-65
2022/07/05 00:44:31;;;;;;;0.00;0.00;;;23.00;60.20;;;;;;4063555;29;20063;-65
2022/07/05 00:46:53;;;;;;;0.00;0.00;;;22.90;60.20;;;;;;4063897;29;20186;-65
2022/07/05 00:49:15;;;;;;;0.00;0.00;;;22.90;60.10;;;;;;4063871;29;20134;-65
2022/07/05 00:51:39;;;;;;;0.10;0.10;;;22.90;60.20;;;;;;4063295;29;20111;-65
2022/07/05 00:54:21;;;;;;;0.00;0.00;;;22.90;60.20;;;;;;4063745;29;20055;-65
2022/07/05 00:56:44;;;;;;;0.00;0.00;;;22.90;60.20;;;;;;4049137;29;20059;-65
2022/07/05 00:59:07;;;;;;;0.00;0.00;;;22.90;60.30;;;;;;4063824;29;20052;-65
2022/07/05 01:01:29;;;;;;;0.30;0.30;;;22.90;60.30;;;;;;4063617;29;20063;-66
2022/07/05 01:03:51;;;;;;;0.00;0.00;;;22.90;60.30;;;;;;4063211;29;20048;-66
2022/07/05 01:06:15;;;;;;;0.00;0.00;;;22.90;60.30;;;;;;4048867;29;20056;-66
2022/07/05 01:08:40;;;;;;;0.00;0.00;;;22.90;60.30;;;;;;4049229;29;20056;-66
2022/07/05 01:11:02;;;;;;;0.00;0.00;;;22.90;60.30;;;;;;4063723;29;20475;-66
2022/07/05 01:13:25;;;;;;;0.00;0.00;;;22.90;60.30;;;;;;4063191;29;20477;-65
2022/07/05 01:15:49;;;;;;;0.10;0.10;;;22.90;61.20;;;;;;4063323;29;20143;-65
2022/07/05 01:18:11;;;;;;;0.00;0.00;;;22.80;61.10;;;;;;4049391;29;20116;-65
2022/07/05 01:20:34;;;;;;;0.00;0.00;;;22.80;60.20;;;;;;4048983;29;20457;-65
2022/07/05 01:22:59;;;;;;;0.52;0.52;;;22.80;60.20;;;;;;4063158;29;20052;-65
2022/07/05 01:25:23;;;;;;;0.00;0.00;;;22.80;61.10;;;;;;4062989;29;20058;-65
2022/07/05 01:27:45;;;;;;;0.00;0.00;;;22.80;60.20;;;;;;4063309;29;20130;-65
2022/07/05 01:30:08;;;;;;;0.00;0.00;;;22.80;60.20;;;;;;4048868;29;20536;-65
2022/07/05 01:32:30;;;;;;;0.00;0.00;;;22.80;60.20;;;;;;4063341;29;20064;-67
2022/07/05 01:34:53;;;;;;;0.00;0.00;;;22.80;60.20;;;;;;4048226;29;20507;-65
2022/07/05 01:37:15;;;;;;;0.00;0.00;;;22.80;60.20;;;;;;4063204;29;20103;-65
2022/07/05 01:39:39;;;;;;;1.35;0.75;;;22.80;60.20;;;;;;4060931;29;20063;-65
2022/07/05 01:42:01;;;;;;;0.00;0.00;;;22.80;60.20;;;;;;4063499;29;20519;-65
2022/07/05 01:44:23;;;;;;;0.00;0.00;;;22.70;60.20;;;;;;4047619;29;20076;-65
2022/07/05 01:46:45;;;;;;;0.00;0.00;;;22.70;60.20;;;;;;4048037;29;20064;-65
2022/07/05 01:49:10;;;;;;;0.20;0.20;;;22.80;60.30;;;;;;4046103;29;20068;-65
2022/07/05 01:51:37;;;;;;;0.00;0.00;;;22.70;60.20;;;;;;4055071;29;20514;-65
2022/07/05 01:54:00;;;;;;;0.00;0.00;;;22.70;60.20;;;;;;4063444;29;20492;-66
2022/07/05 01:56:23;;;;;;;0.25;0.25;;;22.70;60.20;;;;;;4063481;29;20063;-65
2022/07/05 01:58:46;;;;;;;0.00;0.00;;;22.70;60.30;;;;;;4061066;29;20066;-65
2022/07/05 02:01:08;;;;;;;4.63;0.88;;;22.70;60.30;;;;;;4063606;29;20059;-65
2022/07/05 02:03:31;;;;;;;0.00;0.00;;;22.70;60.30;;;;;;4062027;29;20071;-66
2022/07/05 02:06:13;;;;;;;0.00;0.00;;;22.70;60.20;;;;;;4061574;29;20056;-66
2022/07/05 02:08:35;;;;;;;0.00;0.00;;;22.70;60.30;;;;;;4061461;29;20052;-65
2022/07/05 02:11:03;;;;;;;0.00;0.00;;;22.70;60.30;;;;;;4061834;29;20130;-65
2022/07/05 02:13:26;;;;;;;0.00;0.00;;;22.70;60.30;;;;;;4074641;29;20067;-64
2022/07/05 02:15:49;;;;;;;0.00;0.00;;;22.70;60.40;;;;;;4063368;29;20048;-65
2022/07/05 02:18:11;;;;;;;0.00;0.00;;;22.70;60.40;;;;;;4061640;29;20063;-65
2022/07/05 02:20:39;;;;;;;0.13;0.13;;;22.60;60.30;;;;;;4062501;29;20448;-65
2022/07/05 02:23:03;;;;;;;0.00;0.00;;;22.60;60.30;;;;;;4061161;29;20055;-65
2022/07/05 02:25:26;;;;;;;0.00;0.00;;;22.60;60.30;;;;;;4061437;29;20107;-65
2022/07/05 02:27:52;;;;;;;0.00;0.00;;;22.60;60.40;;;;;;4061503;29;20067;-65
2022/07/05 02:30:16;;;;;;;0.00;0.00;;;22.60;60.40;;;;;;4061788;29;20047;-65
2022/07/05 02:32:39;;;;;;;0.00;0.00;;;22.60;60.40;;;;;;4074684;29;20555;-65
2022/07/05 02:35:01;;;;;;;0.00;0.00;;;22.60;60.40;;;;;;4048289;29;20060;-65
2022/07/05 02:37:23;;;;;;;0.00;0.00;;;22.60;60.40;;;;;;4063638;29;20056;-64
2022/07/05 02:39:46;;;;;;;0.00;0.00;;;22.60;60.40;;;;;;4065216;29;20074;-64
2022/07/05 02:42:10;;;;;;;0.00;0.00;;;22.60;61.40;;;;;;4064719;29;20052;-65
2022/07/05 02:44:32;;;;;;;0.00;0.00;;;22.60;60.50;;;;;;4065786;29;20107;-65
2022/07/05 02:46:55;;;;;;;0.00;0.00;;;22.60;60.50;;;;;;4077546;29;20043;-64
2022/07/05 02:49:19;;;;;;;0.00;0.00;;;22.50;60.50;;;;;;4064856;29;20076;-65
2022/07/05 02:51:41;;;;;;;0.00;0.00;;;22.50;60.50;;;;;;4077815;29;20051;-65
2022/07/05 02:54:05;;;;;;;0.00;0.00;;;22.50;60.50;;;;;;4064826;29;20056;-65
2022/07/05 02:56:29;;;;;;;0.00;0.00;;;22.50;60.50;;;;;;4065545;29;20055;-64
2022/07/05 02:58:53;;;;;;;0.00;0.00;;;22.50;60.50;;;;;;4064597;29;20063;-65
2022/07/05 03:01:16;;;;;;;0.00;0.00;;;22.50;60.60;;;;;;4064442;29;20111;-64
2022/07/05 03:03:39;;;;;;;0.00;0.00;;;22.50;60.50;;;;;;4064367;29;20463;-65
2022/07/05 03:06:03;;;;;;;0.00;0.00;;;22.50;60.50;;;;;;4077458;29;20059;-65
2022/07/05 03:08:26;;;;;;;0.00;0.00;;;22.50;60.60;;;;;;4064287;29;20500;-65
2022/07/05 03:10:50;;;;;;;0.00;0.00;;;22.50;60.60;;;;;;4064256;29;20539;-65
2022/07/05 03:13:12;;;;;;;0.00;0.00;;;22.50;60.60;;;;;;4064516;29;20495;-65
2022/07/05 03:15:35;;;;;;;0.00;0.00;;;22.50;60.70;;;;;;4065457;29;20054;-65
2022/07/05 03:17:58;;;;;;;0.57;0.57;;;22.40;60.60;;;;;;4064375;29;20058;-65
2022/07/05 03:20:25;;;;;;;0.00;0.00;;;22.50;60.70;;;;;;4063664;29;20070;-65
2022/07/05 03:22:47;;;;;;;0.03;0.03;;;22.40;60.70;;;;;;4064656;29;20050;-65
2022/07/05 03:25:11;;;;;;;0.00;0.00;;;22.40;60.70;;;;;;4064070;29;20059;-65
2022/07/05 03:27:34;;;;;;;0.00;0.00;;;22.40;60.70;;;;;;4063698;29;20074;-64
2022/07/05 03:29:57;;;;;;;0.00;0.00;;;22.40;61.60;;;;;;4064117;29;20531;-64
2022/07/05 03:32:19;;;;;;;0.00;0.00;;;22.40;60.70;;;;;;4065054;29;20420;-66
2022/07/05 03:34:43;;;;;;;0.00;0.00;;;22.40;60.80;;;;;;4063444;29;20084;-64
2022/07/05 03:37:07;;;;;;;0.00;0.00;;;22.40;60.80;;;;;;4063685;29;20075;-65
2022/07/05 03:39:29;;;;;;;0.00;0.00;;;22.40;60.80;;;;;;4076951;29;20054;-64
2022/07/05 03:41:52;;;;;;;0.00;0.00;;;22.40;60.80;;;;;;4063787;29;20551;-65
2022/07/05 03:44:17;;;;;;;0.10;0.10;;;22.40;60.90;;;;;;4050187;29;20230;-64
2022/07/05 03:46:39;;;;;;;7.88;0.98;;;22.40;60.80;;;;;;4065440;29;20563;-65
2022/07/05 03:49:01;;;;;;;0.22;0.22;;;22.40;60.90;;;;;;4069039;29;20056;-65
2022/07/05 03:51:23;;;;;;;0.00;0.00;;;22.40;60.90;;;;;;4064974;29;20066;-65
2022/07/05 03:53:49;;;;;;;0.00;0.00;;;22.40;60.80;;;;;;4063042;29;20472;-64
2022/07/05 03:56:11;;;;;;;0.00;0.00;;;22.40;60.80;;;;;;4076625;29;20126;-65
2022/07/05 03:58:34;;;;;;;0.00;0.00;;;22.40;60.90;;;;;;4060757;29;20099;-64
2022/07/05 04:00:58;;;;;;;0.00;0.00;;;22.40;60.80;;;;;;4048129;29;20057;-64
2022/07/05 04:03:22;;;;;;;0.00;0.00;;;22.40;60.80;;;;;;4061403;29;20066;-64
2022/07/05 04:05:46;;;;;;;0.00;0.00;;;22.40;60.80;;;;;;4070559;29;20059;-64
2022/07/05 04:08:08;;;;;;;0.00;0.00;;;22.40;60.80;;;;;;4063383;29;20123;-64
2022/07/05 04:10:37;;;;;;;0.00;0.00;;;22.40;60.80;;;;;;4063058;29;20127;-64
2022/07/05 04:13:00;;;;;;;0.00;0.00;;;22.40;60.80;;;;;;4063232;29;20560;-64
2022/07/05 04:15:23;;;;;;;0.00;0.00;;;22.30;60.70;;;;;;4062771;29;20587;-64
2022/07/05 04:17:49;;;;;;;0.00;0.00;;;22.40;60.80;;;;;;4060892;29;20056;-65
2022/07/05 04:20:12;;;;;;;0.00;0.00;;;22.40;60.90;;;;;;4048736;29;20059;-64
2022/07/05 04:22:36;;;;;;;0.00;0.00;;;22.40;60.90;;;;;;4060991;29;20090;-65
2022/07/05 04:27:41;;;;;;;1.70;0.98;;;22.40;61.60;;;;;;4067221;29;20062;-65
2022/07/05 04:30:04;;;;;;;0.00;0.00;;;22.40;61.60;;;;;;4064263;29;20059;-65
2022/07/05 04:32:27;;;;;;;0.00;0.00;;;22.40;61.40;;;;;;4063556;29;20477;-65
2022/07/05 04:34:48;;;;;;;0.00;0.00;;;22.40;61.40;;;;;;4063540;29;20115;-65
2022/07/05 04:37:10;;;;;;;0.00;0.00;;;22.40;61.30;;;;;;4072154;29;20858;-66
2022/07/05 04:39:33;;;;;;;0.00;0.00;;;22.40;61.40;;;;;;4064567;29;20104;-65
2022/07/05 04:42:00;;;;;;;0.38;0.38;;;22.40;61.40;;;;;;4062996;29;20079;-65
2022/07/05 04:44:23;;;;;;;0.00;0.00;;;22.40;61.30;;;;;;4076719;29;20151;-65
2022/07/05 04:46:45;;;;;;;0.00;0.00;;;22.40;61.40;;;;;;4079853;29;20091;-65
2022/07/05 04:49:08;;;;;;;0.00;0.00;;;22.40;61.50;;;;;;4077766;29;20047;-65
2022/07/05 04:51:30;;;;;;;0.00;0.00;;;22.40;61.40;;;;;;4053589;29;20448;-66
2022/07/05 04:53:52;;;;;;;0.00;0.00;;;22.40;61.30;;;;;;4064196;29;20449;-65
2022/07/05 04:56:14;;;;;;;0.00;0.00;;;22.50;61.40;;;;;;4079207;29;20045;-65
2022/07/05 04:58:36;;;;;;;0.00;0.00;;;22.50;61.70;;;;;;4078868;29;20062;-64
2022/07/05 05:00:59;;;;;;;0.00;0.00;;;22.50;61.20;;;;;;4078865;29;20138;-65
2022/07/05 05:03:22;;;;;;;0.00;0.00;;;22.50;62.10;;;;;;4073612;29;20075;-66
2022/07/05 05:05:44;;;;;;;0.00;0.00;;;22.50;61.20;;;;;;4063087;29;20414;-65
2022/07/05 05:08:06;;;;;;;0.00;0.00;;;22.50;62.10;;;;;;4063697;29;20056;-65
2022/07/05 05:10:28;;;;;;;0.00;0.00;;;22.50;61.10;;;;;;4047058;29;20460;-65
2022/07/05 05:12:51;;;;;;;0.10;0.10;;;22.50;61.00;;;;;;4048111;29;20049;-65
2022/07/05 05:15:13;;;;;;;0.00;0.00;;;22.50;60.90;;;;;;4041859;29;20771;-65
2022/07/05 05:17:42;;;;;;;0.10;0.10;;;22.50;60.90;;;;;;4063068;29;20147;-64
2022/07/05 05:20:06;;;;;;;0.00;0.00;;;22.50;60.80;;;;;;4063671;29;20040;-64
2022/07/05 05:22:28;;;;;;;0.05;0.05;;;22.50;60.60;;;;;;4063146;29;20060;-65
2022/07/05 05:24:50;;;;;;;0.00;0.00;;;22.60;60.40;;;;;;4063253;29;20396;-65
2022/07/05 05:27:13;;;;;;;0.00;0.00;;;22.60;60.10;;;;;;4062935;29;20071;-65
2022/07/05 05:29:34;;;;;;;0.17;0.17;;;22.70;59.70;;;;;;4042491;29;20425;-65
2022/07/05 05:31:56;;;;;;;0.00;0.00;;;22.70;59.40;;;;;;4054391;29;20144;-65
2022/07/05 05:34:20;;;;;;;0.00;0.00;;;22.90;59.30;;;;;;4063113;29;20131;-66
2022/07/05 05:36:41;;;;;;;0.10;0.10;;;22.90;59.10;;;;;;4062631;29;20056;-65
2022/07/05 05:39:03;;;;;;;0.00;0.00;;;23.00;58.80;;;;;;4063155;29;20532;-65
2022/07/05 05:41:25;;;;;;;0.00;0.00;;;23.00;58.60;;;;;;4059817;29;20045;-65
2022/07/05 05:43:47;;;;;;;0.00;0.00;;;23.00;58.40;;;;;;4068665;29;20106;-65
2022/07/05 05:46:09;;;;;;;0.00;0.00;;;23.00;58.40;;;;;;4069594;29;20111;-65
2022/07/05 05:48:31;;;;;;;0.00;0.00;;;23.00;58.40;;;;;;4062632;29;20665;-66
2022/07/05 05:50:55;;;;;;;0.00;0.00;;;23.00;58.40;;;;;;4062706;29;20080;-65
2022/07/05 05:53:17;;;;;;;0.00;0.00;;;23.00;58.50;;;;;;4062787;29;20044;-65
2022/07/05 05:55:40;;;;;;;0.17;0.17;;;23.00;58.50;;;;;;4062366;29;20098;-65
2022/07/05 05:58:12;;;;;;;0.00;0.00;;;23.00;59.40;;;;;;4062765;29;20470;-65
2022/07/05 06:00:34;;;;;;;0.20;0.20;;;23.00;59.60;;;;;;4062841;29;20063;-66
2022/07/05 06:02:56;;;;;;;0.20;0.20;;;22.90;58.90;;;;;;4062673;29;20175;-65
2022/07/05 06:05:18;;;;;;;0.00;0.00;;;22.90;58.90;;;;;;4062559;29;20115;-65
2022/07/05 06:07:49;;;;;;;0.00;0.00;;;22.90;58.90;;;;;;4062577;29;20484;-65
2022/07/05 06:10:11;;;;;;;0.00;0.00;;;22.90;58.90;;;;;;4062103;29;20048;-65
2022/07/05 06:12:33;;;;;;;0.00;0.00;;;22.90;59.00;;;;;;4061338;29;20082;-65
2022/07/05 06:14:55;;;;;;;1.65;1.55;;;22.80;58.90;;;;;;4062259;29;20484;-64
2022/07/05 06:17:17;;;;;;;0.17;0.17;;;22.80;58.90;;;;;;4061455;29;20496;-65
2022/07/05 06:19:39;;;;;;;0.17;0.17;;;22.80;59.00;;;;;;4047755;29;20087;-64
2022/07/05 06:22:01;;;;;;;0.03;0.03;;;22.80;59.00;;;;;;4062599;29;20071;-65
2022/07/05 06:24:25;;;;;;;0.00;0.00;;;22.80;59.00;;;;;;4061600;29;20064;-64
2022/07/05 06:26:47;;;;;;;0.00;0.00;;;22.80;59.00;;;;;;4062580;29;20052;-64
2022/07/05 06:29:09;;;;;;;0.00;0.00;;;22.90;58.90;;;;;;4062401;29;20499;-64
2022/07/05 06:31:31;;;;;;;0.00;0.00;;;22.90;58.80;;;;;;4061985;29;20055;-64
2022/07/05 06:33:54;;;;;;;0.00;0.00;;;22.90;58.70;;;;;;4061404;29;20048;-64
2022/07/05 06:36:15;;;;;;;0.00;0.00;;;22.90;58.70;;;;;;4062461;29;20058;-64
2022/07/05 06:38:37;;;;;;;0.00;0.00;;;22.90;58.60;;;;;;4062181;29;20064;-63
2022/07/05 06:41:01;;;;;;;0.00;0.00;;;22.90;58.60;;;;;;4062253;29;20052;-64
2022/07/05 06:43:23;;;;;;;0.00;0.00;;;22.90;58.50;;;;;;4069154;29;20163;-64
2022/07/05 06:46:05;;;;;;;0.00;0.00;;;23.00;58.50;;;;;;4046762;29;20057;-64
2022/07/05 06:48:27;;;;;;;0.00;0.00;;;23.10;58.30;;;;;;4047033;29;20056;-64
2022/07/05 06:50:49;;;;;;;0.03;0.03;;;23.10;58.10;;;;;;4059902;29;20051;-64
2022/07/05 06:53:12;;;;;;;0.00;0.00;;;23.20;58.00;;;;;;4062496;29;20593;-63
2022/07/05 06:55:35;;;;;;;0.00;0.00;;;23.30;57.80;;;;;;4061911;29;20108;-64
2022/07/05 06:58:00;;;;;;;0.20;0.20;;;23.30;57.60;;;;;;4062379;29;20052;-64
2022/07/05 07:00:38;;;;;;;0.00;0.00;;;23.40;57.50;;;;;;4061404;29;20150;-64
2022/07/05 07:03:20;;;;;;;0.00;0.00;;;23.50;57.30;;;;;;4062261;29;20048;-64
2022/07/05 07:06:02;;;;;;;0.00;0.00;;;23.50;57.00;;;;;;4062136;29;20103;-65
2022/07/05 07:11:05;;;;;;;0.00;0.00;;;23.60;56.60;;;;;;4061669;29;20036;-64
2022/07/05 07:13:29;;;;;;;0.00;0.00;;;23.70;56.40;;;;;;4062126;29;20132;-64
2022/07/05 07:15:51;;;;;;;0.00;0.00;;;23.80;56.20;;;;;;4062234;29;20052;-65
2022/07/05 07:18:13;;;;;;;1.00;1.00;;;23.80;56.00;;;;;;4062053;29;20139;-64
2022/07/05 07:20:35;;;;;;;0.08;0.08;;;23.80;55.70;;;;;;4062234;29;20069;-64
2022/07/05 07:22:57;;;;;;;0.00;0.00;;;23.80;55.60;;;;;;4062149;29;20082;-64
2022/07/05 07:25:20;;;;;;;0.00;0.00;;;23.90;55.30;;;;;;4064193;29;20078;-65
2022/07/05 07:27:44;;;;;;;0.13;0.13;;;23.90;55.10;;;;;;4064991;29;20055;-64
2022/07/05 07:30:09;;;;;;;0.00;0.00;;;23.90;54.80;;;;;;4065209;29;20052;-65
2022/07/05 07:32:31;;;;;;;0.00;0.00;;;23.90;54.90;;;;;;4064066;29;20559;-64
2022/07/05 07:34:53;;;;;;;0.00;0.00;;;24.00;54.60;;;;;;4065113;29;20059;-65
2022/07/05 07:37:15;;;;;;;0.25;0.22;;;24.00;54.30;;;;;;4064472;29;20048;-64
2022/07/05 07:39:37;;;;;;;0.00;0.00;;;24.00;54.20;;;;;;4059520;29;20687;-64
2022/07/05 07:41:59;;;;;;;0.00;0.00;;;24.00;54.30;;;;;;4048738;29;20083;-59
2022/07/05 07:44:22;;;;;;;0.00;0.00;;;24.00;54.60;;;;;;4064261;29;20044;-59
2022/07/05 07:46:46;;;;;;;0.00;0.00;;;24.00;54.80;;;;;;4063939;29;20135;-59
2022/07/05 07:49:08;;;;;;;0.98;0.98;;;24.00;54.90;;;;;;4063328;29;20078;-60
2022/07/05 07:51:30;;;;;;;0.80;0.80;;;24.00;54.90;;;;;;4048666;29;20568;-58
2022/07/05 07:53:52;;;;;;;2.88;1.38;;;24.00;55.00;;;;;;4048940;29;20057;-65
2022/07/05 07:56:28;;;;;;;0.13;0.13;;;24.00;55.30;;;;;;4048170;29;20144;-65
2022/07/05 07:58:50;;;;;;;1.27;1.27;;;24.00;55.00;;;;;;4048540;29;20100;-64
2022/07/05 08:01:13;;;;;;;5.85;1.98;;;23.90;54.70;;;;;;4048749;29;20052;-64
2022/07/05 08:03:36;;;;;;;0.65;0.65;;;23.90;54.80;;;;;;4049072;29;20120;-59
2022/07/05 08:05:59;;;;;;;1.00;0.68;;;23.90;54.90;;;;;;4048425;29;20063;-60
2022/07/05 08:08:21;;;;;;;0.00;0.00;;;23.80;54.80;;;;;;4047896;29;20045;-60
2022/07/05 08:10:43;;;;;;;0.05;0.05;;;23.80;54.70;;;;;;4048490;29;20055;-59
2022/07/05 08:13:04;;;;;;;0.10;0.10;;;23.80;54.60;;;;;;4048796;29;20139;-59
2022/07/05 08:15:26;;;;;;;5.47;1.67;;;23.80;54.50;;;;;;4048262;29;20198;-60
2022/07/05 08:23:06;;;;;;;0.00;0.00;;;23.60;54.40;;;;;;4032865;29;20056;-60
2022/07/05 08:25:28;;;;;;;0.22;0.22;;;23.60;54.40;;;;;;4045367;29;20147;-60
2022/07/05 08:27:51;;;;;;;0.00;0.00;;;23.60;54.40;;;;;;4045339;29;20367;-59
2022/07/05 08:30:13;;;;;;;0.00;0.00;;;23.60;54.50;;;;;;4048169;29;20083;-60
2022/07/05 08:32:36;;;;;;;0.00;0.00;;;23.60;54.60;;;;;;4048684;29;20059;-60
2022/07/05 08:34:58;;;;;;;0.00;0.00;;;23.50;54.60;;;;;;4046294;29;20104;-60
2022/07/05 08:37:21;;;;;;;0.10;0.10;;;23.50;54.60;;;;;;4048366;29;20052;-60
2022/07/05 08:39:43;;;;;;;0.08;0.08;;;23.50;54.60;;;;;;4061491;29;20048;-60
2022/07/05 08:42:10;;;;;;;0.20;0.20;;;23.50;54.60;;;;;;4064263;29;20131;-60
2022/07/05 08:44:35;;;;;;;0.00;0.00;;;23.50;54.60;;;;;;4063624;29;20575;-60
2022/07/05 08:46:57;;;;;;;0.05;0.05;;;23.40;54.50;;;;;;4064107;29;20079;-60
2022/07/05 08:49:23;;;;;;;0.00;0.00;;;23.40;55.30;;;;;;4063533;29;20115;-60
2022/07/05 08:51:46;;;;;;;0.00;0.00;;;23.40;54.60;;;;;;4063455;29;20056;-60
2022/07/05 08:54:11;;;;;;;0.00;0.00;;;23.40;54.60;;;;;;4062896;29;20051;-60
2022/07/05 08:56:35;;;;;;;0.00;0.00;;;23.40;54.50;;;;;;4063898;29;20505;-60
2022/07/05 08:59:17;;;;;;;1.75;1.45;;;23.40;54.50;;;;;;4063675;29;20062;-59
2022/07/05 09:01:40;;;;;;;0.10;0.10;;;23.40;54.40;;;;;;4064193;29;20055;-60
2022/07/05 09:04:06;;;;;;;0.00;0.00;;;23.30;54.40;;;;;;4063602;29;20052;-60
2022/07/05 09:06:29;;;;;;;0.08;0.08;;;23.30;54.50;;;;;;4062701;29;20843;-60
2022/07/05 09:08:55;;;;;;;0.00;0.00;;;23.30;54.50;;;;;;4063222;29;20056;-60
2022/07/05 09:11:21;;;;;;;0.00;0.00;;;23.30;54.40;;;;;;4063100;29;20040;-60
2022/07/05 09:13:48;;;;;;;0.00;0.00;;;23.30;54.30;;;;;;4063387;29;20111;-62
2022/07/05 09:16:31;;;;;;;0.05;0.05;;;23.30;54.40;;;;;;4063100;29;20067;-61
2022/07/05 09:18:55;;;;;;;0.00;0.00;;;23.40;54.40;;;;;;4056915;29;20094;-61
2022/07/05 09:21:20;;;;;;;0.38;0.25;;;23.30;54.90;;;;;;4063249;29;20058;-60
2022/07/05 09:23:42;;;;;;;0.00;0.00;;;23.30;54.20;;;;;;4063106;29;20084;-63
2022/07/05 09:26:04;;;;;;;0.00;0.00;;;23.30;54.20;;;;;;4063260;29;20047;-61
2022/07/05 09:28:27;;;;;;;0.00;0.00;;;23.30;54.20;;;;;;4062146;29;20419;-62
2022/07/05 09:30:49;;;;;;;0.00;0.00;;;23.30;54.30;;;;;;4048724;29;20535;-61
2022/07/05 09:33:14;;;;;;;0.00;0.00;;;23.30;54.30;;;;;;4062431;29;20060;-61
2022/07/05 09:35:37;;;;;;;0.30;0.30;;;23.20;54.30;;;;;;4061422;29;20103;-60
2022/07/05 09:38:02;;;;;;;0.00;0.00;;;23.20;54.30;;;;;;4062465;29;20135;-61
2022/07/05 09:40:25;;;;;;;0.00;0.00;;;23.20;54.90;;;;;;4030942;29;20052;-61
2022/07/05 09:42:47;;;;;;;0.00;0.00;;;23.30;54.20;;;;;;4035585;29;20124;-62
2022/07/05 09:45:23;;;;;;;0.00;0.00;;;23.30;54.10;;;;;;4043549;29;20049;-62
2022/07/05 09:47:45;;;;;;;0.00;0.00;;;23.30;53.90;;;;;;4036884;29;20055;-61
2022/07/05 09:50:35;;;;;;;0.00;0.00;;;23.30;53.90;;;;;;4038771;29;20080;-61
2022/07/05 09:53:18;;;;;;;0.00;0.00;;;23.30;53.90;;;;;;4036333;29;20053;-61
2022/07/05 09:55:40;;;;;;;12.05;1.08;;;23.40;53.70;;;;;;4042386;29;20076;-60
2022/07/05 09:58:02;;;;;;;0.00;0.00;;;23.40;53.60;;;;;;4032215;29;20148;-61
2022/07/05 10:00:25;;;;;;;0.00;0.00;;;23.40;53.40;;;;;;4045410;29;20076;-61
2022/07/05 10:02:50;;;;;;;0.00;0.00;;;23.40;53.30;;;;;;4046633;29;20412;-63
2022/07/05 10:05:13;;;;;;;0.00;0.00;;;23.40;53.30;;;;;;4039976;29;20410;-62
2022/07/05 10:07:36;;;;;;;0.00;0.00;;;23.40;53.40;;;;;;4041512;29;20553;-62
2022/07/05 10:09:58;;;;;;;0.75;0.70;;;23.30;53.50;;;;;;4037958;29;20044;-62
2022/07/05 10:12:20;;;;;;;0.00;0.00;;;23.30;53.60;;;;;;4045393;29;20111;-63
2022/07/05 10:14:42;;;;;;;0.00;0.00;;;23.30;53.60;;;;;;4047132;29;20055;-62
2022/07/05 10:17:07;;;;;;;0.00;0.00;;;23.30;53.50;;;;;;4033430;29;20072;-63
2022/07/05 10:19:34;;;;;;;0.05;0.05;;;23.30;53.60;;;;;;4031937;29;20060;-62
2022/07/05 10:21:56;;;;;;;0.00;0.00;;;23.30;53.70;;;;;;4039451;29;20071;-62
2022/07/05 10:24:38;;;;;;;0.00;0.00;;;23.40;53.90;;;;;;4047040;29;20552;-62
2022/07/05 10:27:01;;;;;;;0.17;0.17;;;23.30;54.00;;;;;;4043120;29;20052;-62
2022/07/05 10:29:24;;;;;;;0.00;0.00;;;23.30;54.10;;;;;;4047023;29;20056;-61
2022/07/05 10:31:47;;;;;;;0.00;0.00;;;23.30;54.10;;;;;;4046525;29;20068;-62
2022/07/05 10:34:10;;;;;;;0.00;0.00;;;23.40;54.00;;;;;;4044326;29;20049;-62
2022/07/05 10:36:49;;;;;;;0.05;0.05;;;23.40;54.00;;;;;;4044842;29;20144;-62
2022/07/05 10:39:12;;;;;;;0.00;0.00;;;23.50;54.20;;;;;;4046300;29;20515;-62
2022/07/05 10:41:34;;;;;;;0.08;0.08;;;23.50;54.50;;;;;;4046817;29;20136;-62
2022/07/05 10:43:57;;;;;;;0.10;0.10;;;23.50;54.50;;;;;;4047141;29;20100;-63
2022/07/05 10:46:35;;;;;;;8.57;0.80;;;23.60;54.30;;;;;;4046116;29;20063;-61
2022/07/05 10:49:15;;;;;;;0.00;0.00;;;23.60;54.20;;;;;;4047083;29;20063;-61
2022/07/05 10:51:37;;;;;;;0.00;0.00;;;23.70;54.00;;;;;;4046534;29;20515;-62
2022/07/05 10:54:03;;;;;;;0.20;0.20;;;23.70;53.80;;;;;;4046950;29;20044;-62
2022/07/05 10:56:25;;;;;;;0.00;0.00;;;23.70;53.70;;;;;;4047249;29;20044;-61
2022/07/05 10:58:50;;;;;;;0.25;0.25;;;23.70;53.80;;;;;;4047753;29;20067;-62
2022/07/05 11:01:41;;;;;;;0.00;0.00;;;23.80;53.50;;;;;;4048650;29;20047;-62
2022/07/05 11:04:29;;;;;;;0.00;0.00;;;23.80;53.30;;;;;;4050072;29;20068;-64
2022/07/05 11:06:52;;;;;;;0.00;0.00;;;23.80;53.20;;;;;;4049937;29;20083;-62
2022/07/05 11:09:16;;;;;;;0.00;0.00;;;23.80;53.20;;;;;;4050008;29;20115;-62
2022/07/05 11:11:39;;;;;;;0.00;0.00;;;23.80;53.20;;;;;;4050361;29;20511;-61
2022/07/05 11:14:40;;;;;;;0.22;0.22;;;23.80;53.20;;;;;;4049757;29;20453;-61
2022/07/05 11:17:25;;;;;;;0.00;0.00;;;23.90;53.40;;;;;;4049875;29;20143;-62
2022/07/05 11:20:23;;;;;;;0.00;0.00;;;23.90;53.50;;;;;;4061590;29;20047;-61
2022/07/05 11:23:17;;;;;;;0.00;0.00;;;23.90;53.60;;;;;;4049661;29;20051;-61
2022/07/05 11:25:44;;;;;;;0.10;0.10;;;24.00;53.70;;;;;;4049524;29;20508;-61
2022/07/05 11:28:12;;;;;;;0.05;0.05;;;24.00;53.70;;;;;;4049504;29;20108;-62
2022/07/05 11:30:56;;;;;;;0.17;0.17;;;24.00;53.80;;;;;;4049464;29;20136;-62
2022/07/05 11:33:29;;;;;;;0.00;0.00;;;24.00;54.10;;;;;;4049695;29;20393;-61
2022/07/05 11:35:52;;;;;;;0.00;0.00;;;24.00;54.20;;;;;;4049408;29;20052;-61
2022/07/05 11:38:15;;;;;;;0.00;0.00;;;24.00;54.10;;;;;;4049786;29;20124;-62
2022/07/05 11:40:48;;;;;;;0.00;0.00;;;24.00;54.10;;;;;;4048090;29;20127;-60
2022/07/05 11:43:13;;;;;;;0.03;0.03;;;24.00;54.00;;;;;;4049497;29;20060;-60
2022/07/05 11:45:35;;;;;;;0.00;0.00;;;24.00;54.10;;;;;;4049487;29;20508;-60
2022/07/05 11:47:59;;;;;;;0.00;0.00;;;24.00;54.20;;;;;;4049711;29;20565;-60
2022/07/05 11:50:30;;;;;;;0.00;0.00;;;24.00;54.10;;;;;;4049301;29;20052;-61
2022/07/05 11:52:52;;;;;;;0.00;0.00;;;24.00;54.10;;;;;;4048648;29;20076;-61
2022/07/05 11:55:14;;;;;;;0.00;0.00;;;24.00;54.10;;;;;;4049396;29;20127;-61
2022/07/05 11:57:37;;;;;;;0.00;0.00;;;24.00;54.10;;;;;;4049370;29;21240;-61
2022/07/05 11:59:59;;;;;;;0.00;0.00;;;24.00;54.00;;;;;;4049279;29;20199;-61
2022/07/05 12:02:21;;;;;;;0.17;0.17;;;24.00;54.10;;;;;;4049517;29;20040;-60
2022/07/05 12:04:50;;;;;;;0.00;0.00;;;24.00;54.00;;;;;;4049350;29;20108;-60
2022/07/05 12:07:11;;;;;;;0.00;0.00;;;24.00;54.00;;;;;;4049129;29;20105;-61
2022/07/05 12:14:52;;;;;;;0.00;0.00;;;24.10;54.20;;;;;;4048995;29;20052;-61
2022/07/05 12:17:16;;;;;;;0.00;0.00;;;24.10;54.20;;;;;;4049093;29;20060;-61
2022/07/05 12:19:46;;;;;;;0.00;0.00;;;24.10;55.00;;;;;;4047462;29;20075;-61
2022/07/05 12:22:09;;;;;;;0.00;0.00;;;24.00;54.30;;;;;;4049290;29;20075;-61
2022/07/05 12:24:31;;;;;;;0.00;0.00;;;24.00;54.50;;;;;;4048945;29;20510;-61
2022/07/05 12:26:54;;;;;;;0.00;0.00;;;24.00;54.50;;;;;;4048996;29;20135;-61
2022/07/05 12:29:16;;;;;;;0.00;0.00;;;24.00;54.60;;;;;;4048936;29;20052;-67
2022/07/05 12:32:01;;;;;;;0.00;0.00;;;24.00;54.60;;;;;;4049106;29;20111;-67
2022/07/05 12:34:24;;;;;;;0.00;0.00;;;24.00;54.70;;;;;;4047189;29;20215;-67
2022/07/05 12:36:47;;;;;;;0.00;0.00;;;24.00;55.40;;;;;;4060825;29;20058;-67
2022/07/05 12:39:11;;;;;;;0.00;0.00;;;24.00;54.70;;;;;;4046581;29;20054;-67
2022/07/05 12:41:33;;;;;;;0.00;0.00;;;24.00;54.80;;;;;;4048254;29;20053;-61
2022/07/05 12:43:56;;;;;;;0.00;0.00;;;24.00;54.90;;;;;;4048210;29;20051;-61
2022/07/05 12:46:18;;;;;;;0.13;0.13;;;24.00;54.90;;;;;;4047796;29;20497;-61
2022/07/05 12:48:41;;;;;;;0.00;0.00;;;24.00;55.00;;;;;;4048336;29;20500;-61
2022/07/05 12:51:05;;;;;;;0.00;0.00;;;24.00;55.10;;;;;;4048048;29;20119;-61